createdAt,value
2022-10-13T00:01:17.436Z,11.65
2022-10-13T00:03:48.478Z,12.60
2022-10-13T00:06:25.762Z,11.70
2022-10-13T00:08:54.645Z,16.55
2022-10-13T00:11:24.794Z,12.40
2022-10-13T00:13:54.934Z,15.38
2022-10-13T00:16:23.025Z,10.15
2022-10-13T00:18:50.812Z,11.83
2022-10-13T00:21:20.202Z,13.23
2022-10-13T00:23:49.865Z,14.68
2022-10-13T00:26:23.401Z,13.05
2022-10-13T00:28:52.791Z,12.70
2022-10-13T00:31:21.757Z,12.13
2022-10-13T00:33:49.433Z,10.70
2022-10-13T00:36:19.825Z,14.23
2022-10-13T00:38:47.624Z,12.68
2022-10-13T00:41:15.647Z,11.10
2022-10-13T00:43:59.972Z,13.83
2022-10-13T00:46:29.952Z,10.52
2022-10-13T00:49:00.769Z,11.07
2022-10-13T00:51:34.137Z,12.93
2022-10-13T00:54:03.350Z,11.13
2022-10-13T00:56:31.535Z,12.73
2022-10-13T00:59:01.223Z,12.18
2022-10-13T01:01:29.091Z,12.23
2022-10-13T01:03:56.529Z,13.35
2022-10-13T01:06:24.443Z,11.85
2022-10-13T01:08:51.885Z,9.97
2022-10-13T01:11:43.907Z,10.00
2022-10-13T01:14:20.447Z,10.88
2022-10-13T01:16:57.998Z,12.57
2022-10-13T01:19:51.195Z,15.50
2022-10-13T01:22:38.271Z,10.50
2022-10-13T01:25:20.038Z,16.33
2022-10-13T01:28:04.564Z,11.10
2022-10-13T01:30:35.673Z,10.52
2022-10-13T01:33:26.482Z,11.73
2022-10-13T01:36:16.428Z,9.60
2022-10-13T01:38:51.443Z,9.93
2022-10-13T01:41:25.782Z,13.48
2022-10-13T01:44:00.257Z,12.32
2022-10-13T01:46:32.364Z,10.90
2022-10-13T01:49:02.647Z,13.23
2022-10-13T01:51:31.608Z,8.48
2022-10-13T01:53:59.598Z,15.23
2022-10-13T01:56:26.924Z,12.07
2022-10-13T01:58:56.460Z,10.85
2022-10-13T02:01:47.848Z,9.40
2022-10-13T02:04:28.754Z,9.27
2022-10-13T02:07:04.317Z,13.45
2022-10-13T02:09:39.861Z,12.23
2022-10-13T02:12:12.086Z,13.52
2022-10-13T02:14:42.354Z,10.77
2022-10-13T02:17:11.627Z,14.00
2022-10-13T02:19:41.446Z,11.75
2022-10-13T02:22:11.695Z,11.35
2022-10-13T02:24:39.243Z,11.25
2022-10-13T02:27:07.880Z,11.70
2022-10-13T02:29:47.999Z,13.75
2022-10-13T02:32:18.748Z,12.05
2022-10-13T02:34:46.295Z,12.40
2022-10-13T02:37:13.965Z,12.27
2022-10-13T02:39:41.449Z,10.40
2022-10-13T02:42:11.919Z,11.60
2022-10-13T02:44:40.135Z,10.60
2022-10-13T02:47:07.545Z,11.25
2022-10-13T02:49:36.309Z,14.18
2022-10-13T02:52:04.814Z,14.00
2022-10-13T02:54:32.213Z,12.73
2022-10-13T02:56:59.543Z,14.23
2022-10-13T02:59:26.952Z,13.55
2022-10-13T03:01:54.280Z,12.50
2022-10-13T03:04:22.291Z,10.90
2022-10-13T03:06:50.954Z,10.93
2022-10-13T03:09:18.302Z,10.65
2022-10-13T03:11:45.720Z,13.20
2022-10-13T03:14:13.243Z,9.40
2022-10-13T03:16:40.565Z,10.50
2022-10-13T03:19:10.703Z,9.88
2022-10-13T03:21:38.531Z,13.90
2022-10-13T03:24:07.571Z,11.93
2022-10-13T03:26:35.143Z,9.38
2022-10-13T03:29:03.306Z,13.07
2022-10-13T03:31:30.964Z,13.75
2022-10-13T03:34:03.045Z,10.20
2022-10-13T03:36:30.372Z,11.45
2022-10-13T03:38:57.787Z,11.68
2022-10-13T03:41:26.575Z,11.97
2022-10-13T03:43:54.443Z,12.73
2022-10-13T03:46:24.610Z,13.68
2022-10-13T03:48:51.942Z,12.55
2022-10-13T03:51:20.892Z,12.43
2022-10-13T03:53:50.718Z,12.73
2022-10-13T03:56:21.033Z,11.82
2022-10-13T03:58:54.739Z,12.15
2022-10-13T04:01:23.797Z,10.50
2022-10-13T04:03:53.861Z,11.57
2022-10-13T04:06:21.661Z,16.60
2022-10-13T04:08:49.530Z,13.30
2022-10-13T04:11:17.747Z,12.77
2022-10-13T04:13:52.986Z,11.15
2022-10-13T04:16:23.399Z,14.32
2022-10-13T04:18:52.532Z,12.37
2022-10-13T04:21:19.917Z,14.00
2022-10-13T04:23:47.431Z,12.43
2022-10-13T04:26:16.892Z,10.70
2022-10-13T04:28:45.615Z,13.25
2022-10-13T04:31:14.774Z,11.43
2022-10-13T04:33:42.220Z,12.82
2022-10-13T04:36:12.663Z,13.38
2022-10-13T04:38:40.086Z,9.65
2022-10-13T04:41:09.112Z,12.35
2022-10-13T04:43:36.684Z,13.10
2022-10-13T04:46:05.495Z,14.00
2022-10-13T04:48:34.344Z,16.17
2022-10-13T04:51:02.838Z,11.10
2022-10-13T04:53:31.354Z,14.90
2022-10-13T04:56:02.203Z,12.07
2022-10-13T04:58:30.062Z,11.35
2022-10-13T05:01:02.620Z,12.35
2022-10-13T05:03:30.124Z,14.00
2022-10-13T05:05:59.245Z,11.68
2022-10-13T05:08:26.585Z,13.03
2022-10-13T05:10:55.187Z,12.45
2022-10-13T05:13:22.590Z,13.27
2022-10-13T05:15:50.732Z,14.35
2022-10-13T05:18:22.153Z,14.68
2022-10-13T05:20:49.750Z,13.87
2022-10-13T05:23:18.432Z,12.48
2022-10-13T05:25:45.804Z,14.50
2022-10-13T05:28:15.337Z,12.77
2022-10-13T05:30:42.825Z,10.98
2022-10-13T05:33:10.218Z,17.40
2022-10-13T05:35:37.591Z,12.15
2022-10-13T05:38:04.908Z,12.63
2022-10-13T05:40:33.621Z,12.52
2022-10-13T05:43:01.579Z,13.30
2022-10-13T05:45:32.192Z,13.50
2022-10-13T05:47:59.511Z,13.98
2022-10-13T05:50:26.887Z,12.25
2022-10-13T05:52:54.266Z,10.95
2022-10-13T05:55:21.586Z,13.35
2022-10-13T05:57:52.677Z,11.47
2022-10-13T06:00:20.539Z,14.52
2022-10-13T06:02:52.246Z,16.88
2022-10-13T06:05:22.108Z,17.38
2022-10-13T06:07:54.514Z,11.38
2022-10-13T06:10:22.755Z,14.27
2022-10-13T06:12:51.500Z,13.45
2022-10-13T06:15:18.825Z,13.25
2022-10-13T06:17:46.205Z,11.55
2022-10-13T06:20:13.624Z,14.55
2022-10-13T06:22:40.951Z,14.50
2022-10-13T06:25:09.403Z,15.73
2022-10-13T06:27:36.768Z,15.43
2022-10-13T06:30:06.439Z,19.23
2022-10-13T06:32:34.022Z,15.65
2022-10-13T06:35:01.358Z,16.80
2022-10-13T06:37:28.686Z,14.55
2022-10-13T06:39:56.040Z,15.25
2022-10-13T06:42:23.591Z,14.32
2022-10-13T06:45:10.738Z,12.07
2022-10-13T06:47:41.036Z,15.77
2022-10-13T06:50:09.063Z,14.40
2022-10-13T06:52:36.501Z,14.63
2022-10-13T06:55:04.275Z,17.20
2022-10-13T06:57:33.145Z,14.63
2022-10-13T07:00:07.109Z,14.20
2022-10-13T07:02:35.841Z,17.10
2022-10-13T07:05:03.462Z,14.23
2022-10-13T07:07:30.812Z,14.57
2022-10-13T07:09:58.217Z,17.38
2022-10-13T07:12:25.582Z,14.60
2022-10-13T07:14:52.947Z,13.38
2022-10-13T07:17:20.636Z,19.38
2022-10-13T07:19:49.646Z,14.07
2022-10-13T07:22:17.008Z,15.05
2022-10-13T07:24:44.779Z,13.13
2022-10-13T07:27:12.312Z,19.98
2022-10-13T07:29:39.741Z,18.02
2022-10-13T07:32:07.230Z,16.77
2022-10-13T07:34:34.667Z,17.17
2022-10-13T07:37:03.358Z,18.07
2022-10-13T07:39:32.868Z,18.33
2022-10-13T07:42:00.888Z,15.57
2022-10-13T07:44:28.499Z,17.52
2022-10-13T07:46:55.851Z,17.02
2022-10-13T07:49:23.359Z,18.63
2022-10-13T07:51:50.689Z,15.85
2022-10-13T07:54:23.798Z,19.88
2022-10-13T07:56:56.012Z,18.25
2022-10-13T07:59:23.659Z,17.63
2022-10-13T08:01:51.224Z,16.23
2022-10-13T08:04:18.726Z,17.85
2022-10-13T08:06:46.042Z,19.25
2022-10-13T08:09:13.498Z,16.90
2022-10-13T08:11:42.173Z,18.33
2022-10-13T08:14:12.072Z,21.40
2022-10-13T08:16:40.387Z,17.48
2022-10-13T08:19:07.821Z,19.70
2022-10-13T08:24:25.388Z,18.15
2022-10-13T08:26:54.097Z,19.20
2022-10-13T08:29:23.547Z,19.38
2022-10-13T08:31:52.612Z,22.70
2022-10-13T08:34:20.594Z,19.63
2022-10-13T08:36:48.799Z,20.67
2022-10-13T08:39:16.183Z,19.33
2022-10-13T08:41:44.475Z,18.58
2022-10-13T08:45:05.918Z,18.48
2022-10-13T08:47:15.854Z,19.33
2022-10-13T08:49:43.831Z,18.55
2022-10-13T08:52:19.022Z,17.97
2022-10-13T08:54:46.811Z,21.20
2022-10-13T08:57:15.843Z,22.70
2022-10-13T08:59:44.574Z,15.10
2022-10-13T09:02:14.777Z,15.30
2022-10-13T09:04:47.349Z,18.50
2022-10-13T09:07:18.823Z,21.40
2022-10-13T09:09:51.736Z,21.00
2022-10-13T09:12:24.239Z,17.10
2022-10-13T09:15:01.482Z,17.45
2022-10-13T09:17:30.005Z,19.60
2022-10-13T09:20:00.702Z,17.20
2022-10-13T09:22:30.632Z,19.33
2022-10-13T09:25:18.672Z,26.27
2022-10-13T09:27:50.482Z,17.52
2022-10-13T09:30:32.869Z,16.83
2022-10-13T09:33:19.004Z,17.23
2022-10-13T09:35:48.238Z,18.50
2022-10-13T09:38:17.795Z,18.35
2022-10-13T09:40:57.949Z,18.30
2022-10-13T09:43:31.070Z,16.87
2022-10-13T09:46:01.001Z,18.80
2022-10-13T09:48:32.413Z,19.13
2022-10-13T09:50:59.805Z,19.23
2022-10-13T09:53:32.569Z,18.40
2022-10-13T09:56:17.325Z,20.83
2022-10-13T09:58:48.721Z,19.27
2022-10-13T10:01:24.111Z,23.63
2022-10-13T10:03:52.021Z,20.80
2022-10-13T10:06:21.723Z,19.02
2022-10-13T10:09:03.282Z,22.70
2022-10-13T10:11:37.464Z,18.52
2022-10-13T10:14:15.704Z,21.63
2022-10-13T10:16:48.140Z,21.98
2022-10-13T10:19:22.315Z,19.98
2022-10-13T10:21:57.922Z,21.83
2022-10-13T10:24:33.935Z,20.85
2022-10-13T10:27:06.515Z,23.15
2022-10-13T10:29:45.568Z,18.58
2022-10-13T10:32:27.913Z,19.42
2022-10-13T10:34:59.820Z,20.30
2022-10-13T10:37:44.389Z,19.20
2022-10-13T10:40:24.163Z,20.00
2022-10-13T10:43:10.902Z,18.25
2022-10-13T10:45:39.675Z,22.17
2022-10-13T10:48:24.470Z,24.20
2022-10-13T10:50:53.245Z,18.02
2022-10-13T10:53:26.743Z,21.27
2022-10-13T10:55:59.039Z,19.27
2022-10-13T10:58:37.647Z,19.67
2022-10-13T11:01:19.749Z,19.10
2022-10-13T11:03:54.130Z,18.00
2022-10-13T11:06:26.170Z,19.83
2022-10-13T11:08:55.366Z,20.77
2022-10-13T11:11:39.812Z,22.90
2022-10-13T11:14:29.811Z,17.70
2022-10-13T11:17:20.281Z,21.55
2022-10-13T11:19:49.602Z,19.83
2022-10-13T11:22:19.964Z,18.65
2022-10-13T11:24:59.252Z,21.88
2022-10-13T11:27:42.089Z,16.93
2022-10-13T11:30:55.371Z,20.08
2022-10-13T11:33:51.309Z,17.08
2022-10-13T11:36:51.534Z,20.00
2022-10-13T11:39:52.436Z,16.75
2022-10-13T11:42:42.741Z,17.27
2022-10-13T11:45:24.813Z,20.13
2022-10-13T11:48:16.677Z,16.73
2022-10-13T11:50:58.289Z,18.88
2022-10-13T11:53:32.878Z,18.30
2022-10-13T11:56:04.238Z,24.77
2022-10-13T11:58:32.855Z,18.90
2022-10-13T12:01:03.376Z,19.23
2022-10-13T12:03:32.795Z,15.43
2022-10-13T12:06:04.634Z,19.90
2022-10-13T12:08:36.363Z,17.47
2022-10-13T12:11:07.595Z,15.25
2022-10-13T12:13:36.496Z,16.25
2022-10-13T12:16:06.591Z,17.27
2022-10-13T12:18:36.186Z,17.10
2022-10-13T12:21:11.731Z,13.00
2022-10-13T12:23:41.876Z,13.45
2022-10-13T12:26:15.650Z,14.85
2022-10-13T12:28:52.227Z,15.55
2022-10-13T12:31:22.476Z,13.90
2022-10-13T12:33:54.624Z,15.77
2022-10-13T12:36:26.654Z,14.80
2022-10-13T12:38:59.670Z,12.68
2022-10-13T12:41:29.453Z,15.63
2022-10-13T12:43:59.908Z,13.68
2022-10-13T12:46:42.289Z,15.67
2022-10-13T12:49:14.784Z,14.43
2022-10-13T12:51:44.768Z,14.18
2022-10-13T12:54:19.594Z,15.15
2022-10-13T12:56:47.239Z,14.07
2022-10-13T12:59:17.454Z,12.83
2022-10-13T13:01:53.889Z,13.82
2022-10-13T13:04:47.207Z,11.60
2022-10-13T13:07:31.758Z,14.02
2022-10-13T13:10:15.964Z,14.07
2022-10-13T13:12:44.326Z,12.53
2022-10-13T13:15:21.027Z,12.93
2022-10-13T13:18:03.559Z,14.52
2022-10-13T13:20:33.225Z,14.85
2022-10-13T13:23:01.173Z,12.68
2022-10-13T13:25:29.966Z,14.43
2022-10-13T13:27:57.478Z,14.02
2022-10-13T13:30:25.123Z,13.20
2022-10-13T13:32:52.475Z,12.77
2022-10-13T13:35:19.929Z,15.60
2022-10-13T13:37:49.918Z,15.57
2022-10-13T13:40:19.885Z,16.80
2022-10-13T13:42:48.887Z,13.80
2022-10-13T13:45:18.391Z,15.27
2022-10-13T13:47:46.244Z,15.15
2022-10-13T13:50:17.462Z,14.47
2022-10-13T13:52:47.896Z,16.58
2022-10-13T13:55:15.612Z,14.75
2022-10-13T13:57:43.676Z,14.60
2022-10-13T14:00:15.230Z,13.77
2022-10-13T14:02:44.081Z,15.50
2022-10-13T14:05:12.356Z,14.25
2022-10-13T14:07:39.874Z,16.45
2022-10-13T14:10:09.871Z,15.68
2022-10-13T14:12:37.434Z,18.52
2022-10-13T14:15:05.473Z,17.80
2022-10-13T14:17:34.264Z,14.70
2022-10-13T14:20:01.695Z,16.05
2022-10-13T14:22:29.165Z,16.23
2022-10-13T14:24:56.595Z,17.38
2022-10-13T14:27:24.060Z,18.17
2022-10-13T14:29:53.197Z,18.65
2022-10-13T14:32:20.756Z,16.45
2022-10-13T14:34:49.676Z,16.13
2022-10-13T14:37:20.890Z,12.23
2022-10-13T14:39:50.694Z,13.17
2022-10-13T14:42:18.096Z,13.85
2022-10-13T14:44:45.517Z,18.85
2022-10-13T14:47:12.941Z,14.55
2022-10-13T14:49:40.351Z,16.40
2022-10-13T14:52:09.869Z,14.57
2022-10-13T14:54:40.080Z,13.48
2022-10-13T14:57:15.486Z,14.75
2022-10-13T14:59:43.220Z,18.25
2022-10-13T15:02:11.088Z,11.65
2022-10-13T15:04:38.682Z,14.97
2022-10-13T15:07:06.356Z,16.15
2022-10-13T15:09:52.155Z,15.65
2022-10-13T15:12:24.993Z,17.30
2022-10-13T15:14:52.367Z,13.35
2022-10-13T15:17:19.809Z,15.80
2022-10-13T15:19:47.244Z,15.60
2022-10-13T15:22:15.094Z,15.52
2022-10-13T15:24:43.850Z,15.10
2022-10-13T15:27:11.198Z,15.10
2022-10-13T15:29:38.609Z,15.57
2022-10-13T15:32:11.053Z,14.23
2022-10-13T15:34:39.052Z,15.13
2022-10-13T15:37:06.533Z,15.40
2022-10-13T15:39:34.057Z,16.55
2022-10-13T15:42:02.788Z,12.57
2022-10-13T15:44:50.987Z,17.33
2022-10-13T15:47:18.636Z,14.68
2022-10-13T15:49:46.038Z,16.13
2022-10-13T15:52:13.511Z,16.63
2022-10-13T15:54:40.974Z,11.93
2022-10-13T15:57:09.957Z,14.63
2022-10-13T15:59:37.378Z,19.80
2022-10-13T16:02:04.898Z,16.35
2022-10-13T16:04:37.078Z,16.13
2022-10-13T16:07:05.044Z,14.50
2022-10-13T16:09:32.395Z,21.95
2022-10-13T16:11:59.738Z,16.80
2022-10-13T16:14:28.484Z,19.50
2022-10-13T16:16:58.095Z,17.05
2022-10-13T16:19:25.470Z,18.23
2022-10-13T16:21:52.841Z,18.52
2022-10-13T16:24:20.496Z,20.92
2022-10-13T16:26:47.827Z,19.20
2022-10-13T16:29:15.438Z,19.98
2022-10-13T16:31:44.186Z,18.33
2022-10-13T16:34:11.532Z,17.30
2022-10-13T16:36:38.886Z,17.42
2022-10-13T16:39:06.258Z,20.73
2022-10-13T16:41:33.613Z,24.00
2022-10-13T16:44:00.997Z,18.83
2022-10-13T16:46:28.455Z,20.02
2022-10-13T16:48:57.228Z,22.48
2022-10-13T16:51:25.470Z,20.90
2022-10-13T16:53:54.430Z,21.08
2022-10-13T16:56:23.522Z,22.53
2022-10-13T16:58:53.182Z,24.55
2022-10-13T17:01:21.171Z,25.70
2022-10-13T17:03:50.484Z,23.60
2022-10-13T17:06:20.703Z,25.00
2022-10-13T17:08:54.784Z,20.03
2022-10-13T17:11:23.669Z,22.30
2022-10-13T17:13:51.391Z,19.20
2022-10-13T17:16:19.283Z,22.73
2022-10-13T17:18:46.691Z,20.95
2022-10-13T17:21:16.962Z,23.47
2022-10-13T17:23:48.568Z,27.45
2022-10-13T17:26:17.861Z,22.70
2022-10-13T17:28:45.714Z,25.23
2022-10-13T17:31:15.038Z,24.45
2022-10-13T17:33:43.168Z,20.03
2022-10-13T17:36:13.914Z,18.77
2022-10-13T17:38:41.947Z,20.92
2022-10-13T17:41:11.713Z,22.95
2022-10-13T17:43:48.128Z,21.70
2022-10-13T17:46:35.611Z,22.73
2022-10-13T17:49:04.797Z,21.63
2022-10-13T17:51:32.230Z,22.40
2022-10-13T17:54:00.443Z,24.95
2022-10-13T17:56:29.807Z,24.35
2022-10-13T17:58:57.575Z,23.97
2022-10-13T18:01:27.695Z,32.50
2022-10-13T18:03:56.889Z,23.33
2022-10-13T18:06:27.999Z,25.33
2022-10-13T18:08:55.381Z,24.00
2022-10-13T18:11:24.643Z,23.07
2022-10-13T18:13:53.530Z,25.80
2022-10-13T18:16:23.014Z,28.25
2022-10-13T18:18:51.863Z,26.13
2022-10-13T18:21:22.636Z,22.67
2022-10-13T18:23:54.606Z,22.30
2022-10-13T18:26:22.311Z,26.90
2022-10-13T18:28:51.030Z,23.67
2022-10-13T18:31:24.255Z,26.92
2022-10-13T18:33:53.861Z,25.27
2022-10-13T18:36:24.265Z,22.67
2022-10-13T18:38:52.406Z,24.63
2022-10-13T18:41:22.070Z,25.63
2022-10-13T18:43:49.659Z,24.10
2022-10-13T18:46:19.077Z,24.52
2022-10-13T18:48:49.321Z,24.63
2022-10-13T18:51:18.539Z,25.35
2022-10-13T18:53:47.767Z,27.77
2022-10-13T18:56:19.028Z,27.75
2022-10-13T18:58:47.031Z,25.40
2022-10-13T19:01:19.873Z,27.80
2022-10-13T19:03:50.928Z,29.98
2022-10-13T19:06:20.392Z,23.75
2022-10-13T19:08:55.115Z,27.02
2022-10-13T19:11:23.099Z,24.13
2022-10-13T19:13:51.539Z,26.13
2022-10-13T19:16:21.158Z,25.40
2022-10-13T19:18:50.839Z,24.02
2022-10-13T19:21:19.366Z,26.45
2022-10-13T19:23:46.884Z,23.33
2022-10-13T19:26:21.485Z,25.70
2022-10-13T19:28:48.983Z,25.38
2022-10-13T19:31:18.660Z,27.65
2022-10-13T19:33:47.209Z,27.85
2022-10-13T19:36:23.190Z,22.95
2022-10-13T19:38:52.678Z,25.87
2022-10-13T19:41:20.301Z,22.33
2022-10-13T19:43:47.812Z,28.08
2022-10-13T19:46:15.942Z,28.83
2022-10-13T19:48:44.722Z,25.48
2022-10-13T19:51:12.962Z,24.47
2022-10-13T19:53:42.124Z,26.55
2022-10-13T19:56:18.459Z,28.33
2022-10-13T19:58:45.821Z,26.10
2022-10-13T20:01:13.273Z,26.15
2022-10-13T20:03:40.790Z,26.53
2022-10-13T20:06:09.313Z,23.90
2022-10-13T20:08:39.159Z,29.08
2022-10-13T20:11:09.037Z,28.45
2022-10-13T20:13:37.296Z,27.42
2022-10-13T20:16:06.833Z,25.83
2022-10-13T20:18:35.374Z,29.88
2022-10-13T20:21:03.554Z,26.95
2022-10-13T20:23:31.621Z,26.58
2022-10-13T20:26:02.869Z,25.80
2022-10-13T20:28:42.725Z,25.07
2022-10-13T20:31:12.759Z,25.08
2022-10-13T20:33:40.978Z,27.05
2022-10-13T20:36:11.458Z,26.15
2022-10-13T20:38:39.061Z,29.83
2022-10-13T20:41:07.591Z,27.47
2022-10-13T20:43:37.089Z,31.30
2022-10-13T20:46:06.767Z,33.97
2022-10-13T20:48:57.903Z,26.85
2022-10-13T20:51:23.933Z,25.88
2022-10-13T20:53:51.832Z,30.40
2022-10-13T20:56:20.926Z,30.58
2022-10-13T20:58:50.122Z,28.20
2022-10-13T21:01:18.300Z,29.38
2022-10-13T21:03:46.350Z,28.23
2022-10-13T21:06:14.651Z,31.00
2022-10-13T21:08:45.198Z,28.33
2022-10-13T21:11:14.676Z,27.02
2022-10-13T21:13:43.303Z,28.65
2022-10-13T21:16:13.946Z,28.90
2022-10-13T21:18:44.442Z,27.90
2022-10-13T21:21:12.133Z,26.38
2022-10-13T21:23:40.850Z,30.75
2022-10-13T21:26:09.450Z,28.20
2022-10-13T21:28:38.945Z,28.20
2022-10-13T21:31:08.316Z,31.53
2022-10-13T21:33:39.095Z,29.40
2022-10-13T21:36:07.683Z,30.50
2022-10-13T21:38:35.211Z,30.77
2022-10-13T21:41:04.473Z,29.50
2022-10-13T21:43:32.078Z,30.00
2022-10-13T21:46:08.255Z,29.08
2022-10-13T21:48:40.890Z,31.35
2022-10-13T21:51:12.770Z,32.60
2022-10-13T21:53:40.208Z,27.77
2022-10-13T21:56:09.965Z,33.33
2022-10-13T21:58:37.778Z,30.90
2022-10-13T22:01:06.155Z,31.10
2022-10-13T22:03:34.814Z,30.70
2022-10-13T22:06:08.386Z,35.50
2022-10-13T22:08:39.094Z,30.27
2022-10-13T22:11:16.566Z,33.85
2022-10-13T22:13:44.218Z,31.13
2022-10-13T22:16:14.354Z,31.58
2022-10-13T22:18:42.182Z,33.55
2022-10-13T22:21:13.527Z,31.90
2022-10-13T22:23:41.828Z,31.23
2022-10-13T22:26:09.960Z,30.58
2022-10-13T22:28:38.072Z,35.70
2022-10-13T22:31:06.210Z,29.27
2022-10-13T22:33:35.355Z,28.43
2022-10-13T22:36:07.095Z,31.98
2022-10-13T22:38:36.295Z,33.47
2022-10-13T22:41:05.624Z,35.90
2022-10-13T22:43:33.729Z,32.05
2022-10-13T22:46:12.145Z,32.97
2022-10-13T22:48:40.947Z,31.85
2022-10-13T22:51:16.979Z,32.80
2022-10-13T22:53:45.956Z,31.67
2022-10-13T22:56:16.445Z,30.67
2022-10-13T22:58:44.399Z,31.60
2022-10-13T23:01:13.891Z,29.40
2022-10-13T23:03:41.964Z,32.83
2022-10-13T23:06:13.889Z,32.92
2022-10-13T23:08:41.892Z,32.53
2022-10-13T23:11:10.922Z,31.23
2022-10-13T23:13:38.387Z,31.98
2022-10-13T23:16:08.629Z,30.10
2022-10-13T23:18:38.026Z,35.40
2022-10-13T23:21:06.244Z,34.03
2022-10-13T23:23:34.027Z,34.57
2022-10-13T23:26:03.001Z,30.83
2022-10-13T23:28:32.702Z,32.35
2022-10-13T23:31:02.718Z,29.40
2022-10-13T23:33:30.617Z,32.55
2022-10-13T23:36:00.091Z,32.73
2022-10-13T23:38:29.029Z,33.65
2022-10-13T23:41:01.411Z,30.27
2022-10-13T23:43:28.765Z,34.85
2022-10-13T23:45:57.584Z,33.28
2022-10-13T23:48:25.009Z,33.03
2022-10-13T23:50:52.422Z,32.50
2022-10-13T23:53:19.854Z,31.58
2022-10-13T23:55:47.225Z,29.05
2022-10-13T23:58:14.756Z,31.27
